createdAt,value
2022-08-10T00:01:51.372Z,3.10
2022-08-10T00:04:23.157Z,2.95
2022-08-10T00:06:53.047Z,3.08
2022-08-10T00:09:23.347Z,3.15
2022-08-10T00:11:52.183Z,3.03
2022-08-10T00:14:21.955Z,2.78
2022-08-10T00:16:50.161Z,2.90
2022-08-10T00:19:19.252Z,2.95
2022-08-10T00:21:49.550Z,3.10
2022-08-10T00:24:18.733Z,3.60
2022-08-10T00:27:52.951Z,3.10
2022-08-10T00:29:37.333Z,2.97
2022-08-10T00:32:06.160Z,2.85
2022-08-10T00:34:36.108Z,2.95
2022-08-10T00:37:04.696Z,3.25
2022-08-10T00:39:35.941Z,2.92
2022-08-10T00:42:08.672Z,3.47
2022-08-10T00:44:38.381Z,3.20
2022-08-10T00:47:07.483Z,3.83
2022-08-10T00:49:50.060Z,2.65
2022-08-10T00:52:20.033Z,2.67
2022-08-10T00:54:49.231Z,3.03
2022-08-10T00:57:20.661Z,3.20
2022-08-10T00:59:59.371Z,2.83
2022-08-10T01:02:33.304Z,3.00
2022-08-10T01:07:52.173Z,2.83
2022-08-10T01:10:31.247Z,3.05
2022-08-10T01:13:07.687Z,2.97
2022-08-10T01:15:44.115Z,3.10
2022-08-10T01:18:19.731Z,2.95
2022-08-10T01:21:10.147Z,2.92
2022-08-10T01:24:06.750Z,3.30
2022-08-10T01:27:08.501Z,3.00
2022-08-10T01:29:50.153Z,2.58
2022-08-10T01:32:25.657Z,2.90
2022-08-10T01:34:58.029Z,2.70
2022-08-10T01:37:33.500Z,3.03
2022-08-10T01:40:05.825Z,2.85
2022-08-10T01:42:37.311Z,3.28
2022-08-10T01:45:11.043Z,3.20
2022-08-10T01:47:59.824Z,3.47
2022-08-10T01:50:31.922Z,3.63
2022-08-10T01:53:06.140Z,3.15
2022-08-10T01:55:36.422Z,3.00
2022-08-10T01:58:06.467Z,3.13
2022-08-10T02:00:40.038Z,3.30
2022-08-10T02:03:10.019Z,2.97
2022-08-10T02:05:41.262Z,3.40
2022-08-10T02:08:12.578Z,3.35
2022-08-10T02:10:42.130Z,2.88
2022-08-10T02:13:11.081Z,2.88
2022-08-10T02:16:01.465Z,3.10
2022-08-10T02:18:32.241Z,3.22
2022-08-10T02:21:03.508Z,2.95
2022-08-10T02:23:34.027Z,3.47
2022-08-10T02:26:04.585Z,3.08
2022-08-10T02:28:35.001Z,3.13
2022-08-10T02:31:08.809Z,3.22
2022-08-10T02:33:56.801Z,3.25
2022-08-10T02:36:28.955Z,2.90
2022-08-10T02:39:00.935Z,3.17
2022-08-10T02:45:12.567Z,3.85
2022-08-10T02:45:19.190Z,3.10
2022-08-10T02:47:26.573Z,2.90
2022-08-10T02:50:03.021Z,3.05
2022-08-10T02:52:42.122Z,2.97
2022-08-10T02:55:18.782Z,2.88
2022-08-10T02:58:12.534Z,3.75
2022-08-10T03:00:44.720Z,3.00
2022-08-10T03:03:21.135Z,3.03
2022-08-10T03:05:52.346Z,3.13
2022-08-10T03:08:25.692Z,3.20
2022-08-10T03:10:55.997Z,3.08
2022-08-10T03:13:25.504Z,3.22
2022-08-10T03:15:55.473Z,3.25
2022-08-10T03:18:26.029Z,3.08
2022-08-10T03:20:56.044Z,3.33
2022-08-10T03:23:26.376Z,3.30
2022-08-10T03:25:56.780Z,3.22
2022-08-10T03:28:26.696Z,3.55
2022-08-10T03:30:58.597Z,3.28
2022-08-10T03:33:32.211Z,3.05
2022-08-10T03:38:51.852Z,3.20
2022-08-10T03:41:25.403Z,3.47
2022-08-10T03:43:59.475Z,2.92
2022-08-10T03:46:29.236Z,3.40
2022-08-10T03:49:03.241Z,3.53
2022-08-10T03:51:33.639Z,3.28
2022-08-10T03:54:07.198Z,3.70
2022-08-10T03:56:37.910Z,3.30
2022-08-10T03:59:07.961Z,3.17
2022-08-10T04:02:45.312Z,3.05
2022-08-10T04:04:28.581Z,3.22
2022-08-10T04:06:58.777Z,3.38
2022-08-10T04:09:53.945Z,3.33
2022-08-10T04:12:19.097Z,3.47
2022-08-10T04:14:52.962Z,3.22
2022-08-10T04:18:03.876Z,3.55
2022-08-10T04:20:19.720Z,3.08
2022-08-10T04:22:52.251Z,3.45
2022-08-10T04:25:21.982Z,3.80
2022-08-10T04:27:51.040Z,3.47
2022-08-10T04:30:19.044Z,3.60
2022-08-10T04:32:50.305Z,3.03
2022-08-10T04:35:21.944Z,3.88
2022-08-10T04:37:52.105Z,3.53
2022-08-10T04:40:29.332Z,2.90
2022-08-10T04:43:11.615Z,3.40
2022-08-10T04:45:49.613Z,3.25
2022-08-10T04:48:40.639Z,3.72
2022-08-10T04:51:17.589Z,3.42
2022-08-10T04:54:05.808Z,3.55
2022-08-10T04:56:40.277Z,3.35
2022-08-10T04:59:12.232Z,3.00
2022-08-10T05:02:22.434Z,3.55
2022-08-10T05:04:34.789Z,3.53
2022-08-10T05:07:10.706Z,3.33
2022-08-10T05:10:01.517Z,3.25
2022-08-10T05:12:27.369Z,3.65
2022-08-10T05:14:55.714Z,3.30
2022-08-10T05:17:24.708Z,3.60
2022-08-10T05:20:04.559Z,3.13
2022-08-10T05:22:39.739Z,3.38
2022-08-10T05:25:11.484Z,3.40
2022-08-10T05:27:40.815Z,3.17
2022-08-10T05:30:11.017Z,3.10
2022-08-10T05:32:57.381Z,3.30
2022-08-10T05:35:28.122Z,3.28
2022-08-10T05:38:12.373Z,3.30
2022-08-10T05:40:46.674Z,3.30
2022-08-10T05:43:18.614Z,3.53
2022-08-10T05:46:18.593Z,3.80
2022-08-10T05:48:55.138Z,3.17
2022-08-10T05:51:26.080Z,3.17
2022-08-10T05:54:04.161Z,3.40
2022-08-10T05:56:55.642Z,3.40
2022-08-10T06:00:33.004Z,3.67
2022-08-10T06:02:33.058Z,3.60
2022-08-10T06:05:08.106Z,3.45
2022-08-10T06:10:12.571Z,3.28
2022-08-10T06:12:53.929Z,3.17
2022-08-10T06:15:50.274Z,2.85
2022-08-10T06:18:15.924Z,3.00
2022-08-10T06:20:44.552Z,2.70
2022-08-10T06:23:13.590Z,3.08
2022-08-10T06:26:11.421Z,2.78
2022-08-10T06:28:35.226Z,3.33
2022-08-10T06:31:05.408Z,3.58
2022-08-10T06:33:36.311Z,3.17
2022-08-10T06:36:07.150Z,3.13
2022-08-10T06:38:37.521Z,3.55
2022-08-10T06:41:18.088Z,3.28
2022-08-10T06:43:55.085Z,3.00
2022-08-10T06:46:24.669Z,2.95
2022-08-10T06:48:55.462Z,2.95
2022-08-10T06:51:26.998Z,2.67
2022-08-10T06:53:59.622Z,2.97
2022-08-10T06:56:37.825Z,2.72
2022-08-10T06:59:21.396Z,2.60
2022-08-10T07:01:54.772Z,2.70
2022-08-10T07:04:32.478Z,2.90
2022-08-10T07:07:04.487Z,2.92
2022-08-10T07:09:36.577Z,3.03
2022-08-10T07:12:09.306Z,2.78
2022-08-10T07:14:43.607Z,2.50
2022-08-10T07:17:16.507Z,2.63
2022-08-10T07:23:01.821Z,2.75
2022-08-10T07:25:10.331Z,2.80
2022-08-10T07:27:59.955Z,2.85
2022-08-10T07:30:31.650Z,2.90
2022-08-10T07:33:01.537Z,2.75
2022-08-10T07:35:41.738Z,2.40
2022-08-10T07:38:21.888Z,2.80
2022-08-10T07:40:51.876Z,2.45
2022-08-10T07:43:24.911Z,2.70
2022-08-10T07:48:27.078Z,2.40
2022-08-10T07:50:59.549Z,2.78
2022-08-10T07:53:33.213Z,2.42
2022-08-10T07:56:16.977Z,3.10
2022-08-10T07:58:59.171Z,2.50
2022-08-10T08:01:33.056Z,3.00
2022-08-10T08:04:11.568Z,2.60
2022-08-10T08:06:44.260Z,3.90
2022-08-10T08:09:12.931Z,2.92
2022-08-10T08:11:44.616Z,2.35
2022-08-10T08:14:16.920Z,2.30
2022-08-10T08:16:48.383Z,2.30
2022-08-10T08:19:37.745Z,2.70
2022-08-10T08:24:10.408Z,2.97
2022-08-10T08:24:57.957Z,2.40
2022-08-10T08:27:28.477Z,2.78
2022-08-10T08:29:58.804Z,2.35
2022-08-10T08:32:33.287Z,2.40
2022-08-10T08:35:10.768Z,2.30
2022-08-10T08:38:28.923Z,2.78
2022-08-10T08:40:30.308Z,2.65
2022-08-10T08:43:21.415Z,2.28
2022-08-10T08:46:15.949Z,2.22
2022-08-10T08:49:01.726Z,2.22
2022-08-10T08:52:09.324Z,2.33
2022-08-10T08:54:40.159Z,2.10
2022-08-10T08:57:22.937Z,1.98
2022-08-10T09:00:13.640Z,1.80
2022-08-10T09:03:08.805Z,2.33
2022-08-10T09:05:58.670Z,2.22
2022-08-10T09:08:45.963Z,1.77
2022-08-10T09:11:29.848Z,2.47
2022-08-10T09:14:02.937Z,2.22
2022-08-10T09:16:44.436Z,2.20
2022-08-10T09:19:36.146Z,1.90
2022-08-10T09:22:18.440Z,1.48
2022-08-10T09:24:55.614Z,1.77
2022-08-10T09:27:27.737Z,1.75
2022-08-10T09:29:59.042Z,1.70
2022-08-10T09:36:17.095Z,1.75
2022-08-10T09:36:28.668Z,1.73
2022-08-10T09:38:38.352Z,1.98
2022-08-10T09:41:21.085Z,1.60
2022-08-10T09:43:56.313Z,2.20
2022-08-10T09:46:35.606Z,1.80
2022-08-10T09:49:16.191Z,1.60
2022-08-10T09:52:14.607Z,1.77
2022-08-10T09:55:06.779Z,1.58
2022-08-10T09:57:57.054Z,2.10
2022-08-10T10:00:33.316Z,1.98
2022-08-10T10:03:17.009Z,1.90
2022-08-10T10:05:54.651Z,2.08
2022-08-10T10:08:31.769Z,1.90
2022-08-10T10:11:18.274Z,1.80
2022-08-10T10:14:03.881Z,2.03
2022-08-10T10:16:54.783Z,2.17
2022-08-10T10:19:37.272Z,2.13
2022-08-10T10:22:26.174Z,2.10
2022-08-10T10:25:19.998Z,2.05
2022-08-10T10:27:59.506Z,1.80
2022-08-10T10:30:36.581Z,1.92
2022-08-10T10:33:14.808Z,1.65
2022-08-10T10:35:50.281Z,1.83
2022-08-10T10:38:20.024Z,1.67
2022-08-10T10:41:01.775Z,1.80
2022-08-10T10:43:45.975Z,1.55
2022-08-10T10:46:26.112Z,1.67
2022-08-10T10:49:05.446Z,1.90
2022-08-10T10:51:39.129Z,1.80
2022-08-10T10:54:13.160Z,1.95
2022-08-10T10:59:53.621Z,1.90
2022-08-10T11:02:32.627Z,1.60
2022-08-10T11:05:15.137Z,1.30
2022-08-10T11:07:53.140Z,1.67
2022-08-10T11:10:32.064Z,1.45
2022-08-10T11:14:26.525Z,1.38
2022-08-10T11:16:19.286Z,1.65
2022-08-10T11:18:56.233Z,1.70
2022-08-10T11:21:47.003Z,1.50
2022-08-10T11:24:47.263Z,1.65
2022-08-10T11:27:21.894Z,1.80
2022-08-10T11:30:00.180Z,1.70
2022-08-10T11:32:42.959Z,2.58
2022-08-10T11:35:21.636Z,2.10
2022-08-10T11:38:34.719Z,1.80
2022-08-10T11:40:54.212Z,1.77
2022-08-10T11:43:27.500Z,1.88
2022-08-10T11:46:08.111Z,1.80
2022-08-10T11:48:52.872Z,1.80
2022-08-10T11:51:29.779Z,1.67
2022-08-10T11:54:04.819Z,1.83
2022-08-10T11:56:40.009Z,1.88
2022-08-10T11:59:26.676Z,2.05
2022-08-10T12:01:57.905Z,1.98
2022-08-10T12:04:28.261Z,2.08
2022-08-10T12:06:57.733Z,2.15
2022-08-10T12:10:08.686Z,2.38
2022-08-10T12:12:17.759Z,2.00
2022-08-10T12:14:52.428Z,1.80
2022-08-10T12:17:28.080Z,1.85
2022-08-10T12:20:03.970Z,2.15
2022-08-10T12:22:37.769Z,1.90
2022-08-10T12:25:10.324Z,2.20
2022-08-10T12:27:43.235Z,2.10
2022-08-10T12:30:15.850Z,1.50
2022-08-10T12:32:56.067Z,1.60
2022-08-10T12:35:28.817Z,2.05
2022-08-10T12:38:09.746Z,2.08
2022-08-10T12:40:44.625Z,1.75
2022-08-10T12:44:06.787Z,1.75
2022-08-10T12:46:19.537Z,1.83
2022-08-10T12:48:58.113Z,1.65
2022-08-10T12:51:30.542Z,1.95
2022-08-10T12:54:08.840Z,1.85
2022-08-10T12:56:40.147Z,1.98
2022-08-10T12:59:12.434Z,1.63
2022-08-10T13:02:07.927Z,1.70
2022-08-10T13:04:34.729Z,1.73
2022-08-10T13:07:04.343Z,2.00
2022-08-10T13:09:34.637Z,1.88
2022-08-10T13:12:38.460Z,1.60
2022-08-10T13:15:43.167Z,1.90
2022-08-10T13:18:18.767Z,1.80
2022-08-10T13:20:53.514Z,1.77
2022-08-10T13:23:24.421Z,1.70
2022-08-10T13:25:55.402Z,1.70
2022-08-10T13:28:37.880Z,1.73
2022-08-10T13:31:16.853Z,2.00
2022-08-10T13:34:39.032Z,1.85
2022-08-10T13:36:42.661Z,1.73
2022-08-10T13:39:12.701Z,1.95
2022-08-10T13:41:43.731Z,1.80
2022-08-10T13:44:16.777Z,1.73
2022-08-10T13:46:50.795Z,1.90
2022-08-10T13:49:21.800Z,1.63
2022-08-10T13:51:55.093Z,1.60
2022-08-10T13:54:28.904Z,2.30
2022-08-10T13:56:58.715Z,1.75
2022-08-10T14:00:34.103Z,1.83
2022-08-10T14:02:26.357Z,1.83
2022-08-10T14:04:57.031Z,1.90
2022-08-10T14:07:28.818Z,1.80
2022-08-10T14:10:04.893Z,1.73
2022-08-10T14:12:33.822Z,1.88
2022-08-10T14:15:03.534Z,1.90
2022-08-10T14:17:34.482Z,1.77
2022-08-10T14:20:10.548Z,1.92
2022-08-10T14:22:43.005Z,1.90
2022-08-10T14:25:13.738Z,2.03
2022-08-10T14:28:03.485Z,1.70
2022-08-10T14:30:34.279Z,1.90
2022-08-10T14:33:04.948Z,2.00
2022-08-10T14:36:22.520Z,2.10
2022-08-10T14:38:29.888Z,2.05
2022-08-10T14:41:01.588Z,2.10
2022-08-10T14:43:35.915Z,2.40
2022-08-10T14:46:06.510Z,2.05
2022-08-10T14:48:40.262Z,1.95
2022-08-10T14:51:10.868Z,2.33
2022-08-10T14:53:44.284Z,1.95
2022-08-10T14:56:16.012Z,2.00
2022-08-10T14:59:05.285Z,1.92
2022-08-10T15:02:00.372Z,1.67
2022-08-10T15:04:28.888Z,1.90
2022-08-10T15:07:01.172Z,2.03
2022-08-10T15:10:00.565Z,1.92
2022-08-10T15:12:33.047Z,1.75
2022-08-10T15:15:03.689Z,1.98
2022-08-10T15:17:37.567Z,2.00
2022-08-10T15:20:13.481Z,1.92
2022-08-10T15:22:50.443Z,1.70
2022-08-10T15:25:25.012Z,1.90
2022-08-10T15:28:05.053Z,1.77
2022-08-10T15:30:40.919Z,1.92
2022-08-10T15:33:57.651Z,2.08
2022-08-10T15:36:38.748Z,1.70
2022-08-10T15:39:14.130Z,2.17
2022-08-10T15:41:58.876Z,2.17
2022-08-10T15:44:39.416Z,1.95
2022-08-10T15:47:12.178Z,1.77
2022-08-10T15:49:49.483Z,1.70
2022-08-10T15:52:39.687Z,1.85
2022-08-10T15:55:43.288Z,2.00
2022-08-10T15:58:11.829Z,1.60
2022-08-10T16:00:48.287Z,1.70
2022-08-10T16:03:24.485Z,1.83
2022-08-10T16:06:01.721Z,2.08
2022-08-10T16:08:55.745Z,1.90
2022-08-10T16:11:37.595Z,2.00
2022-08-10T16:14:20.474Z,1.92
2022-08-10T16:16:57.272Z,2.00
2022-08-10T16:19:28.652Z,1.73
2022-08-10T16:22:00.199Z,2.00
2022-08-10T16:24:32.855Z,1.83
2022-08-10T16:27:04.923Z,1.60
2022-08-10T16:29:56.057Z,2.00
2022-08-10T16:32:26.613Z,1.80
2022-08-10T16:34:56.515Z,1.83
2022-08-10T16:37:57.558Z,2.00
2022-08-10T16:40:22.314Z,1.83
2022-08-10T16:42:52.534Z,1.70
2022-08-10T16:45:30.249Z,2.03
2022-08-10T16:47:59.936Z,2.10
2022-08-10T16:50:31.289Z,1.95
2022-08-10T16:53:03.499Z,2.00
2022-08-10T16:55:49.505Z,1.95
2022-08-10T16:58:25.669Z,1.90
2022-08-10T17:01:01.670Z,1.90
2022-08-10T17:04:05.623Z,2.03
2022-08-10T17:06:29.772Z,3.63
2022-08-10T17:09:00.697Z,2.13
2022-08-10T17:11:31.567Z,2.42
2022-08-10T17:14:02.319Z,2.30
2022-08-10T17:16:37.146Z,1.95
2022-08-10T17:19:11.838Z,2.00
2022-08-10T17:21:51.484Z,2.10
2022-08-10T17:24:25.188Z,1.90
2022-08-10T17:29:58.859Z,1.90
2022-08-10T17:32:22.096Z,2.10
2022-08-10T17:34:57.293Z,2.38
2022-08-10T17:37:28.736Z,2.30
2022-08-10T17:40:00.660Z,2.03
2022-08-10T17:42:29.377Z,2.13
2022-08-10T17:44:59.607Z,2.83
2022-08-10T17:47:29.958Z,2.75
2022-08-10T17:49:59.971Z,2.35
2022-08-10T17:52:32.330Z,2.28
2022-08-10T17:55:10.041Z,2.60
2022-08-10T17:57:40.636Z,2.45
2022-08-10T18:00:14.893Z,2.30
2022-08-10T18:02:48.119Z,2.10
2022-08-10T18:05:16.520Z,2.05
2022-08-10T18:07:48.186Z,2.30
2022-08-10T18:10:20.514Z,2.70
2022-08-10T18:12:50.761Z,2.13
2022-08-10T18:15:22.245Z,2.50
2022-08-10T18:17:59.126Z,2.47
2022-08-10T18:20:34.707Z,2.33
2022-08-10T18:23:04.806Z,2.10
2022-08-10T18:25:36.188Z,2.38
2022-08-10T18:28:09.128Z,2.22
2022-08-10T18:30:46.329Z,2.60
2022-08-10T18:33:17.385Z,2.47
2022-08-10T18:35:47.250Z,2.05
2022-08-10T18:38:17.239Z,2.40
2022-08-10T18:40:53.800Z,2.95
2022-08-10T18:44:06.075Z,2.50
2022-08-10T18:46:19.450Z,2.58
2022-08-10T18:48:53.228Z,2.85
2022-08-10T18:51:26.186Z,2.47
2022-08-10T18:54:00.601Z,2.70
2022-08-10T18:56:48.999Z,2.83
2022-08-10T18:59:33.553Z,2.50
2022-08-10T19:02:14.749Z,2.28
2022-08-10T19:05:04.374Z,2.80
2022-08-10T19:07:47.163Z,2.25
2022-08-10T19:10:28.686Z,2.50
2022-08-10T19:13:02.271Z,2.33
2022-08-10T19:15:43.788Z,2.40
2022-08-10T19:18:23.865Z,2.22
2022-08-10T19:20:59.190Z,2.65
2022-08-10T19:23:40.667Z,2.50
2022-08-10T19:26:43.901Z,2.50
2022-08-10T19:30:09.588Z,2.90
2022-08-10T19:32:21.592Z,2.83
2022-08-10T19:34:59.927Z,2.72
2022-08-10T19:37:38.508Z,2.80
2022-08-10T19:40:44.807Z,2.65
2022-08-10T19:43:30.888Z,2.33
2022-08-10T19:46:15.160Z,2.38
2022-08-10T19:48:53.527Z,2.83
2022-08-10T19:51:27.307Z,2.80
2022-08-10T19:54:03.414Z,3.00
2022-08-10T19:56:44.057Z,2.70
2022-08-10T20:00:16.088Z,2.97
2022-08-10T20:02:22.586Z,2.78
2022-08-10T20:05:02.622Z,2.95
2022-08-10T20:07:37.256Z,3.00
2022-08-10T20:10:16.318Z,2.85
2022-08-10T20:12:51.480Z,3.00
2022-08-10T20:15:29.130Z,2.83
2022-08-10T20:18:03.022Z,2.75
2022-08-10T20:20:37.435Z,3.20
2022-08-10T20:23:18.929Z,3.20
2022-08-10T20:25:56.448Z,3.45
2022-08-10T20:28:35.298Z,2.78
2022-08-10T20:31:11.526Z,2.90
2022-08-10T20:33:57.402Z,3.00
2022-08-10T20:36:32.036Z,2.90
2022-08-10T20:39:13.185Z,3.25
2022-08-10T20:41:55.602Z,3.08
2022-08-10T20:44:34.346Z,2.90
2022-08-10T20:47:07.098Z,3.15
2022-08-10T20:49:42.562Z,3.20
2022-08-10T20:52:12.284Z,3.13
2022-08-10T20:54:45.600Z,3.20
2022-08-10T21:00:12.885Z,2.95
2022-08-10T21:02:54.934Z,3.28
2022-08-10T21:05:31.521Z,3.50
2022-08-10T21:08:13.663Z,3.83
2022-08-10T21:11:01.603Z,3.05
2022-08-10T21:14:10.751Z,3.15
2022-08-10T21:16:56.526Z,3.45
2022-08-10T21:19:41.132Z,3.50
2022-08-10T21:22:26.250Z,3.83
2022-08-10T21:25:02.335Z,3.00
2022-08-10T21:27:55.235Z,3.10
2022-08-10T21:30:37.837Z,3.53
2022-08-10T21:33:12.079Z,3.38
2022-08-10T21:35:45.191Z,3.30
2022-08-10T21:38:24.195Z,3.42
2022-08-10T21:41:58.011Z,4.00
2022-08-10T21:45:04.169Z,3.47
2022-08-10T21:48:17.695Z,3.38
2022-08-10T21:51:16.592Z,3.60
2022-08-10T21:54:18.146Z,3.20
2022-08-10T21:57:09.640Z,3.90
2022-08-10T22:00:00.929Z,3.70
2022-08-10T22:02:50.911Z,3.47
2022-08-10T22:05:44.633Z,3.28
2022-08-10T22:08:37.607Z,3.97
2022-08-10T22:11:28.451Z,3.47
2022-08-10T22:14:16.250Z,3.33
2022-08-10T22:17:59.179Z,3.50
2022-08-10T22:20:24.985Z,3.97
2022-08-10T22:23:34.905Z,3.55
2022-08-10T22:26:32.521Z,4.03
2022-08-10T22:29:23.586Z,3.45
2022-08-10T22:32:19.838Z,3.78
2022-08-10T22:35:21.533Z,4.40
2022-08-10T22:38:16.468Z,3.80
2022-08-10T22:41:05.531Z,3.72
2022-08-10T22:43:53.248Z,3.80
2022-08-10T22:46:43.692Z,3.90
2022-08-10T22:49:11.125Z,3.75
2022-08-10T22:51:52.175Z,3.70
2022-08-10T22:54:42.231Z,3.58
2022-08-10T22:57:34.968Z,3.88
2022-08-10T23:00:15.422Z,3.67
2022-08-10T23:02:51.463Z,3.70
2022-08-10T23:05:29.708Z,4.07
2022-08-10T23:08:02.583Z,4.50
2022-08-10T23:10:38.412Z,4.03
2022-08-10T23:13:13.778Z,3.50
2022-08-10T23:16:22.272Z,3.85
2022-08-10T23:19:09.689Z,3.60
2022-08-10T23:22:05.094Z,3.75
2022-08-10T23:24:37.832Z,3.70
2022-08-10T23:27:12.867Z,4.03
2022-08-10T23:30:09.352Z,3.65
2022-08-10T23:32:42.240Z,3.35
2022-08-10T23:36:04.523Z,3.60
2022-08-10T23:38:06.043Z,3.75
2022-08-10T23:40:36.382Z,3.53
2022-08-10T23:43:06.565Z,3.65
2022-08-10T23:45:53.970Z,4.00
2022-08-10T23:48:26.389Z,4.13
2022-08-10T23:50:59.704Z,3.90
2022-08-10T23:53:31.549Z,3.95
2022-08-10T23:56:03.333Z,4.00
2022-08-10T23:58:38.840Z,3.80
